Monday, June 27, 2016
09:26 UTC
  |  Log In   |  Register Free
Airport Search:

Livermore Municipal Airport
(KLVK)

FAA data valid effective May 26 2016 - Jul 21 2016 (unless otherwise noted).

 
 
 
 
 
 
 
 
 
 
 
 
 
 
Current Aviation Weather for KLVK

Weather Summary


The most recent METAR observation for LVK was updated at: 12:53 UTC
METAR for KLVK is not available. Closest METAR is for KHWD
KLVK  (most recent observation was updatred at 27:06 UTC)
270653Z AUTO 29006KT 10SM CLR 22/10 A2996 RMK AO2 SLP142 T02170100

KHWD  (14.5 nm NE)   (most recent observation was updated at 27:06 UTC)
270654Z 31005KT 10SM CLR 16/10 A3000 RMK AO2 SLP166 T01610100

KOAK  (19.1 nm SE)   (most recent observation was updated at 27:06 UTC)
270653Z 28010KT 10SM FEW010 16/11 A3000 RMK AO2 SLP157 T01560111

TAF for KLVK is not available.
KLVK
270536Z 2706/2806 30004KT P6SM SKC FM270900 VRB03KT P6SM SKC FM271700 28004KT P6SM SKC FM272300 28012KT P6SM SKC FM280400 27006KT P6SM SKC

KOAK  (19.1 nm SE)   (most recent observation was updatred at 27:05 UTC)
270536Z 2706/2812 29009KT P6SM FEW200 FM271000 30005KT P6SM SCT008 FM271700 28009KT P6SM FEW010 FM272000 29015KT P6SM SKC FM280600 29008KT P6SM SKC


KSJC  (20.5 nm NE)   (most recent observation was updatred at 27:05 UTC)
270536Z 2706/2806 31007KT P6SM SKC FM270800 00000KT P6SM FEW008 FM271400 VRB03KT P6SM SCT010 FM272000 32010KT P6SM FEW010 FM272200 32012KT P6SM SKC FM280400 30007KT P6SM SKC
GlobalAir.com is loading additional information.
 Current Weather at LVK
69.0 F° (20.6 C°)

West winds at 4.6 mph
Pressure:
29.96 in
Humidity:
49%
Wind:
West at 4.6 mph
Dew Point:
48.9 F° (9.4 C°)
Visibility:
10.00 mi
LVK NOAA Radar




Find All Airport Services Find A Hotel Find A Rental Car Find A Golf Course Find A Restaurant $100 Hamburger



Airport Weather Forecast for KLVK

Translated METAR for KLVK (0653 UTC)
METAR:
KLVK 270653Z AUTO 29006KT 10SM CLR 22/10 A2996 RMK AO2 SLP142 T02170100
Conditions at:
KLVK (Livermore Muni, CA) observed 0653 UTC 27 June 2016
Temperature:
22°C (71.6°F)
Dewpoint:
10°C (50°F) [RH = 46.5]
Pressure:
29.96 inches Hg (1014.6 mb)
pressure at sea level is 142 in Hg
Winds:
from the WNW (290 degrees) at 6.9 mph (6 knots: 3.1 m/s)
Visibility:
10 mile(s)
Ceiling:
at least 12,000 feet AGL
Clouds:
Clear below 12,000 feet AGL
Remarks:
site is un-manned
site is automated and HAS a precipitation sensor

Translated TAF for KLVK (Livermore Muni, CA) (0536 UTC)
TAF text:
KLVK 270536Z 2706/2806 30004KT P6SM SKC
Forecast period:
Monday Jun 27 2016 06:00 UTC - Tuesday Jun 28 2016 06:00 UTC
Forecast type:
FROM: standard forecast or significant change
Winds:
from the WNW (300 degrees) at 4.6 mph (4 knots: 2.1 m/s)
Visibility:
6 or more mile(s) (9.7+ km)
Ceiling:
at least 12,000 feet AGL
Clouds:
Clear Skies
Weather:
no significant weather observed at this time
TAF text:
FM270900 VRB03KT P6SM SKC
Forecast period:
Monday Jun 27 2016 09:00 UTC - Monday Jun 27 2016 17:00 UTC
Forecast type:
FROM: standard forecast or significant change
Winds:
variable wind direction at 3.5 mph (3 knots: 1.5 m/s)
Visibility:
6 or more mile(s) (9.7+ km)
Ceiling:
at least 12,000 feet AGL
Clouds:
Clear Skies
Weather:
no significant weather observed at this time
TAF text:
FM271700 28004KT P6SM SKC
Forecast period:
Monday Jun 27 2016 17:00 UTC - Monday Jun 27 2016 23:00 UTC
Forecast type:
FROM: standard forecast or significant change
Winds:
from the W (280 degrees) at 4.6 mph (4 knots: 2.1 m/s)
Visibility:
6 or more mile(s) (9.7+ km)
Ceiling:
at least 12,000 feet AGL
Clouds:
Clear Skies
Weather:
no significant weather observed at this time
TAF text:
FM272300 28012KT P6SM SKC
Forecast period:
Monday Jun 27 2016 23:00 UTC - Tuesday Jun 28 2016 04:00 UTC
Forecast type:
FROM: standard forecast or significant change
Winds:
from the W (280 degrees) at 13.8 mph (12 knots: 6.2 m/s)
Visibility:
6 or more mile(s) (9.7+ km)
Ceiling:
at least 12,000 feet AGL
Clouds:
Clear Skies
Weather:
no significant weather observed at this time
TAF text:
FM280400 27006KT P6SM SKC
Forecast period:
Tuesday Jun 28 2016 04:00 UTC - Tuesday Jun 28 2016 06:00 UTC
Forecast type:
FROM: standard forecast or significant change
Winds:
from the W (270 degrees) at 6.9 mph (6 knots: 3.1 m/s)
Visibility:
6 or more mile(s) (9.7+ km)
Ceiling:
at least 12,000 feet AGL
Clouds:
Clear Skies
Weather:
no significant weather observed at this time
FBO's on the Field
FBO Company Facility Photos Services Transportation Aviation Fuel Prices: Prices include tax
Catering Weather Repair Courtesy Rental Type 100LL JetA JetA+ MOGAS 8087
 
Five Rivers Aviation

Currently rated 5 by 1 person
FS:Epic
Last Updated: Jun-07
Login to update fuel prices
SS:
Contact Five Rivers AviationMore FBO Information
 
Add another FBO Facility Photos Catering Weather Repair Courtesy Rental Type 100LL JetA JetA+ MOGAS 8087
Services Transportation Aviation Fuel Prices: Prices include tax


model-print
model-print
model-print
model-print